Time;durP1;ratioP1;P1;durP2;ratioP2;P2;SDS_P1;SDS_P2;PMS_P1;PMS_P2;Temp;Humidity;BMP_temperature;BMP_pressure;BME280_temperature;BME280_humidity;BME280_pressure;Samples;Min_cycle;Max_cycle;Signal;HPM_P1;HPM_P2
2023/09/01 00:00:57;;;;;;;5.05;3.75;;;;;;;;;;5038534;28;20044;-78
2023/09/01 00:03:23;;;;;;;4.10;3.42;;;;;;;;;;5039560;28;20021;-78
2023/09/01 00:05:48;;;;;;;5.55;3.55;;;;;;;;;;5039095;28;20109;-78
2023/09/01 00:08:13;;;;;;;7.82;3.65;;;;;;;;;;5037216;28;20355;-78
2023/09/01 00:10:39;;;;;;;4.25;3.60;;;;;;;;;;5038223;28;20067;-78
2023/09/01 00:13:05;;;;;;;6.55;3.70;;;;;;;;;;5031839;28;20142;-78
2023/09/01 00:15:30;;;;;;;5.38;3.75;;;;;;;;;;5034945;28;20087;-78
2023/09/01 00:17:55;;;;;;;6.88;4.30;;;;;;;;;;5026934;28;20021;-78
2023/09/01 00:20:21;;;;;;;6.60;4.35;;;;;;;;;;5037779;28;20032;-78
2023/09/01 00:22:46;;;;;;;6.57;4.05;;;;;;;;;;5037841;28;20525;-76
2023/09/01 00:25:12;;;;;;;7.63;4.53;;;;;;;;;;5037762;28;20021;-76
2023/09/01 00:27:37;;;;;;;5.25;3.92;;;;;;;;;;5036799;28;20029;-78
2023/09/01 00:30:02;;;;;;;5.70;4.00;;;;;;;;;;5038732;28;20025;-78
2023/09/01 00:32:28;;;;;;;5.68;4.20;;;;;;;;;;5029149;28;20043;-79
2023/09/01 00:34:56;;;;;;;6.63;4.43;;;;;;;;;;5039588;28;20116;-76
2023/09/01 00:37:22;;;;;;;5.28;4.03;;;;;;;;;;5038892;28;20355;-79
2023/09/01 00:39:47;;;;;;;6.78;4.00;;;;;;;;;;5039512;28;20045;-80
2023/09/01 00:42:13;;;;;;;6.50;4.47;;;;;;;;;;5038256;28;20035;-77
2023/09/01 00:44:38;;;;;;;7.07;4.10;;;;;;;;;;5039514;28;20055;-79
2023/09/01 00:47:04;;;;;;;6.47;4.45;;;;;;;;;;5039381;28;20037;-78
2023/09/01 00:49:30;;;;;;;5.53;3.95;;;;;;;;;;5030586;28;20033;-77
2023/09/01 00:51:55;;;;;;;6.32;4.18;;;;;;;;;;5034750;28;20104;-79
2023/09/01 00:54:20;;;;;;;4.18;3.78;;;;;;;;;;5037262;28;20025;-78
2023/09/01 00:56:47;;;;;;;5.82;4.10;;;;;;;;;;5038672;28;20054;-80
2023/09/01 00:59:14;;;;;;;5.80;4.05;;;;;;;;;;5037598;28;20029;-78
2023/09/01 01:01:40;;;;;;;5.38;4.00;;;;;;;;;;5038199;28;20025;-77
2023/09/01 01:04:07;;;;;;;8.55;4.32;;;;;;;;;;5039365;28;20028;-79
2023/09/01 01:06:39;;;;;;;6.60;4.10;;;;;;;;;;5036435;28;20063;-78
2023/09/01 01:09:16;;;;;;;6.32;4.20;;;;;;;;;;5039681;28;20043;-77
2023/09/01 01:11:50;;;;;;;8.27;4.70;;;;;;;;;;5038003;28;20044;-78
2023/09/01 01:14:26;;;;;;;4.72;4.20;;;;;;;;;;5037991;28;20336;-79
2023/09/01 01:16:51;;;;;;;4.75;4.15;;;;;;;;;;5024641;28;20120;-77
2023/09/01 01:19:32;;;;;;;5.80;4.53;;;;;;;;;;5035163;28;20124;-78
2023/09/01 01:21:59;;;;;;;9.73;4.90;;;;;;;;;;5038152;28;20064;-77
2023/09/01 01:24:25;;;;;;;5.47;3.80;;;;;;;;;;5039150;28;20072;-77
2023/09/01 01:26:50;;;;;;;6.15;4.93;;;;;;;;;;5038408;28;20040;-79
2023/09/01 01:29:16;;;;;;;8.00;5.18;;;;;;;;;;5037081;28;20033;-78
2023/09/01 01:31:42;;;;;;;8.40;5.20;;;;;;;;;;5036371;28;20025;-80
2023/09/01 01:34:12;;;;;;;6.80;5.32;;;;;;;;;;5037996;28;20093;-78
2023/09/01 01:36:46;;;;;;;6.38;5.30;;;;;;;;;;5038574;28;20057;-77
2023/09/01 01:39:28;;;;;;;10.93;8.93;;;;;;;;;;5037242;28;20063;-78
2023/09/01 01:42:05;;;;;;;7.50;6.05;;;;;;;;;;5037934;28;20025;-78
2023/09/01 01:44:33;;;;;;;7.82;4.95;;;;;;;;;;5039392;28;20051;-77
2023/09/01 01:46:59;;;;;;;5.43;3.88;;;;;;;;;;5036886;28;20049;-78
2023/09/01 01:49:27;;;;;;;7.20;3.83;;;;;;;;;;5038751;28;20529;-80
2023/09/01 01:51:52;;;;;;;4.93;4.05;;;;;;;;;;5037512;28;20032;-77
2023/09/01 01:54:17;;;;;;;5.13;4.03;;;;;;;;;;5038099;28;20395;-78
2023/09/01 01:56:43;;;;;;;6.53;3.80;;;;;;;;;;5039788;28;20025;-77
2023/09/01 01:59:08;;;;;;;7.78;3.47;;;;;;;;;;5038815;28;20132;-77
2023/09/01 02:01:33;;;;;;;5.45;3.58;;;;;;;;;;5037676;28;20033;-79
2023/09/01 02:03:59;;;;;;;4.80;3.83;;;;;;;;;;5038433;28;20033;-79
2023/09/01 02:06:24;;;;;;;6.25;3.88;;;;;;;;;;5036528;28;20454;-79
2023/09/01 02:08:50;;;;;;;5.25;4.32;;;;;;;;;;5037987;28;20025;-78
2023/09/01 02:11:15;;;;;;;5.20;4.53;;;;;;;;;;5038189;28;20448;-77
2023/09/01 02:13:41;;;;;;;5.28;4.68;;;;;;;;;;5019335;28;20029;-77
2023/09/01 02:16:06;;;;;;;5.72;4.93;;;;;;;;;;5041716;28;20017;-77
2023/09/01 02:18:32;;;;;;;7.28;4.95;;;;;;;;;;5042485;28;20115;-81
2023/09/01 02:20:57;;;;;;;5.90;5.32;;;;;;;;;;5021689;28;20038;-77
2023/09/01 02:23:23;;;;;;;7.47;5.43;;;;;;;;;;5021869;28;20067;-79
2023/09/01 02:25:48;;;;;;;6.65;5.13;;;;;;;;;;5025278;28;20383;-78
2023/09/01 02:28:14;;;;;;;6.63;5.93;;;;;;;;;;5043238;28;20025;-78
2023/09/01 02:30:39;;;;;;;12.85;11.57;;;;;;;;;;5041176;28;20143;-79
2023/09/01 02:33:05;;;;;;;8.95;8.05;;;;;;;;;;5041097;28;20466;-76
2023/09/01 02:35:30;;;;;;;13.02;11.73;;;;;;;;;;5038479;28;20025;-76
2023/09/01 02:37:55;;;;;;;11.48;9.05;;;;;;;;;;5034153;28;20087;-77
2023/09/01 02:40:24;;;;;;;8.98;7.53;;;;;;;;;;5028339;28;20359;-79
2023/09/01 02:42:49;;;;;;;7.38;6.20;;;;;;;;;;5027337;28;20917;-78
2023/09/01 02:45:15;;;;;;;9.70;6.65;;;;;;;;;;5033949;28;20021;-78
2023/09/01 02:47:40;;;;;;;6.43;5.82;;;;;;;;;;5040344;28;20131;-77
2023/09/01 02:50:06;;;;;;;8.55;6.20;;;;;;;;;;5034069;28;20357;-77
2023/09/01 02:52:32;;;;;;;7.95;7.20;;;;;;;;;;5037197;28;20437;-76
2023/09/01 02:54:59;;;;;;;6.70;6.10;;;;;;;;;;5040890;28;20072;-78
2023/09/01 02:57:24;;;;;;;6.40;5.80;;;;;;;;;;5039275;28;20159;-79
2023/09/01 02:59:50;;;;;;;7.20;5.40;;;;;;;;;;5042908;28;20447;-77
2023/09/01 03:02:15;;;;;;;19.08;14.27;;;;;;;;;;5039839;28;20027;-77
2023/09/01 03:04:41;;;;;;;46.10;41.50;;;;;;;;;;5039850;28;20037;-77
2023/09/01 03:07:07;;;;;;;11.73;10.63;;;;;;;;;;5039343;28;20075;-77
2023/09/01 03:09:32;;;;;;;10.30;8.32;;;;;;;;;;5040555;28;20463;-76
2023/09/01 03:11:57;;;;;;;10.73;7.50;;;;;;;;;;5039155;28;20029;-77
2023/09/01 03:14:23;;;;;;;7.53;6.75;;;;;;;;;;5038566;28;20025;-77
2023/09/01 03:16:49;;;;;;;11.38;6.80;;;;;;;;;;5040102;28;20029;-76
2023/09/01 03:19:14;;;;;;;7.95;7.18;;;;;;;;;;5040581;28;20035;-76
2023/09/01 03:21:40;;;;;;;8.07;7.28;;;;;;;;;;5040151;28;20037;-78
2023/09/01 03:24:06;;;;;;;9.15;6.95;;;;;;;;;;5039885;28;20111;-77
2023/09/01 03:26:31;;;;;;;6.97;5.95;;;;;;;;;;5041055;28;20112;-77
2023/09/01 03:28:57;;;;;;;8.40;6.55;;;;;;;;;;5038984;28;20025;-79
2023/09/01 03:31:22;;;;;;;8.13;7.32;;;;;;;;;;5028293;28;20043;-78
2023/09/01 03:33:48;;;;;;;8.82;7.88;;;;;;;;;;5027994;28;20428;-79
2023/09/01 03:36:13;;;;;;;7.50;6.55;;;;;;;;;;5029388;28;20024;-80
2023/09/01 03:38:39;;;;;;;7.85;7.15;;;;;;;;;;5026624;28;20025;-79
2023/09/01 03:41:05;;;;;;;7.68;7.07;;;;;;;;;;5028013;28;20061;-77
2023/09/01 03:43:31;;;;;;;8.63;7.10;;;;;;;;;;5009982;28;20053;-78
2023/09/01 03:45:57;;;;;;;7.60;6.80;;;;;;;;;;5027585;28;20466;-79
2023/09/01 03:48:23;;;;;;;7.47;6.32;;;;;;;;;;5027988;28;20037;-78
2023/09/01 03:51:04;;;;;;;6.78;5.40;;;;;;;;;;5011263;28;20045;-79
2023/09/01 03:53:30;;;;;;;5.55;5.03;;;;;;;;;;5020661;28;20041;-79
2023/09/01 03:55:55;;;;;;;5.95;4.65;;;;;;;;;;5037163;28;20031;-79
2023/09/01 03:58:20;;;;;;;5.88;5.28;;;;;;;;;;5039889;28;20183;-78
2023/09/01 04:00:46;;;;;;;7.13;5.50;;;;;;;;;;5035901;28;20024;-78
2023/09/01 04:03:11;;;;;;;5.88;5.38;;;;;;;;;;5020410;28;20872;-79
2023/09/01 04:05:37;;;;;;;6.97;5.80;;;;;;;;;;5037506;28;20071;-79
2023/09/01 04:08:02;;;;;;;5.65;5.13;;;;;;;;;;5020954;28;20036;-78
2023/09/01 04:10:28;;;;;;;5.93;5.40;;;;;;;;;;5021320;28;20127;-78
2023/09/01 04:12:53;;;;;;;8.23;6.15;;;;;;;;;;5038065;28;20040;-78
2023/09/01 04:15:19;;;;;;;8.40;6.70;;;;;;;;;;5036979;28;20052;-78
2023/09/01 04:17:44;;;;;;;5.43;4.90;;;;;;;;;;5034673;28;22062;-77
2023/09/01 04:20:10;;;;;;;5.20;4.70;;;;;;;;;;5038071;28;20367;-77
2023/09/01 04:22:35;;;;;;;6.35;5.47;;;;;;;;;;5035811;28;20155;-78
2023/09/01 04:25:00;;;;;;;6.93;4.80;;;;;;;;;;5016296;28;20130;-78
2023/09/01 04:27:26;;;;;;;5.80;5.20;;;;;;;;;;5037080;28;20071;-80
2023/09/01 04:29:51;;;;;;;8.23;7.13;;;;;;;;;;5038723;28;20028;-79
2023/09/01 04:32:17;;;;;;;8.93;6.47;;;;;;;;;;5033304;28;21061;-80
2023/09/01 04:34:42;;;;;;;7.65;6.82;;;;;;;;;;5026891;28;20500;-80
2023/09/01 04:37:07;;;;;;;8.02;7.30;;;;;;;;;;5011184;28;20032;-80
2023/09/01 04:39:32;;;;;;;8.25;7.45;;;;;;;;;;5038569;28;20048;-77
2023/09/01 04:41:58;;;;;;;8.35;7.55;;;;;;;;;;5021193;28;20041;-77
2023/09/01 04:44:24;;;;;;;10.02;8.73;;;;;;;;;;5036384;28;20115;-78
2023/09/01 04:46:50;;;;;;;9.43;8.60;;;;;;;;;;5025130;28;20048;-78
2023/09/01 04:49:15;;;;;;;9.38;8.07;;;;;;;;;;5008176;28;20075;-77
2023/09/01 04:51:40;;;;;;;8.05;7.32;;;;;;;;;;5024318;28;20448;-77
2023/09/01 04:54:07;;;;;;;9.10;7.07;;;;;;;;;;5025660;28;20075;-78
2023/09/01 04:56:32;;;;;;;6.20;5.70;;;;;;;;;;5039087;28;20375;-78
2023/09/01 04:58:58;;;;;;;8.00;6.35;;;;;;;;;;5034960;28;20025;-77
2023/09/01 05:01:23;;;;;;;9.00;6.82;;;;;;;;;;5033193;28;20075;-79
2023/09/01 05:03:49;;;;;;;7.50;6.43;;;;;;;;;;5026909;28;20024;-78
2023/09/01 05:06:14;;;;;;;9.32;7.45;;;;;;;;;;5023980;28;20085;-78
2023/09/01 05:08:39;;;;;;;8.05;6.97;;;;;;;;;;5024731;28;20039;-77
2023/09/01 05:11:05;;;;;;;9.13;7.15;;;;;;;;;;5022954;28;20029;-77
2023/09/01 05:13:30;;;;;;;9.10;7.47;;;;;;;;;;5024538;28;20029;-79
2023/09/01 05:15:55;;;;;;;8.98;8.05;;;;;;;;;;5023364;28;20303;-78
2023/09/01 05:18:21;;;;;;;13.45;9.20;;;;;;;;;;5025648;28;20032;-77
2023/09/01 05:20:48;;;;;;;15.75;10.07;;;;;;;;;;5024744;28;20032;-75
2023/09/01 05:23:13;;;;;;;9.77;8.77;;;;;;;;;;5025433;28;20435;-77
2023/09/01 05:25:38;;;;;;;10.35;9.15;;;;;;;;;;5007552;28;20086;-74
2023/09/01 05:28:04;;;;;;;12.50;9.85;;;;;;;;;;5006320;28;20135;-76
2023/09/01 05:30:29;;;;;;;10.70;9.02;;;;;;;;;;5024453;28;20460;-76
2023/09/01 05:32:54;;;;;;;20.38;18.17;;;;;;;;;;5024979;28;20576;-77
2023/09/01 05:35:20;;;;;;;22.98;20.58;;;;;;;;;;5027630;28;20099;-76
2023/09/01 05:37:45;;;;;;;265.63;242.05;;;;;;;;;;5036629;28;20044;-76
2023/09/01 05:40:11;;;;;;;102.88;93.70;;;;;;;;;;5034963;28;20486;-76
2023/09/01 05:42:37;;;;;;;23.98;21.77;;;;;;;;;;5035633;28;20021;-75
2023/09/01 05:45:02;;;;;;;13.15;11.95;;;;;;;;;;5036049;28;20025;-75
2023/09/01 05:47:28;;;;;;;11.82;10.63;;;;;;;;;;5037846;28;20372;-75
2023/09/01 05:49:53;;;;;;;13.52;12.13;;;;;;;;;;5042980;28;20357;-75
2023/09/01 05:52:18;;;;;;;13.75;12.45;;;;;;;;;;5041600;28;20047;-75
2023/09/01 05:54:44;;;;;;;12.38;11.07;;;;;;;;;;5026357;28;20024;-76
2023/09/01 05:57:09;;;;;;;14.73;13.30;;;;;;;;;;5039514;28;20024;-75
2023/09/01 05:59:34;;;;;;;13.73;12.32;;;;;;;;;;5042514;28;20037;-75
2023/09/01 06:02:00;;;;;;;13.90;11.93;;;;;;;;;;5041423;28;20032;-76
2023/09/01 06:04:25;;;;;;;14.52;12.85;;;;;;;;;;5040733;28;20057;-76
2023/09/01 06:06:51;;;;;;;14.77;13.27;;;;;;;;;;5038581;28;20033;-75
2023/09/01 06:09:16;;;;;;;14.35;12.55;;;;;;;;;;5039581;28;20017;-77
2023/09/01 06:11:42;;;;;;;14.93;13.32;;;;;;;;;;5038570;28;20021;-76
2023/09/01 06:14:07;;;;;;;14.68;13.23;;;;;;;;;;5041816;28;20071;-79
2023/09/01 06:16:32;;;;;;;15.73;13.90;;;;;;;;;;5039287;28;20485;-77
2023/09/01 06:18:59;;;;;;;14.75;13.32;;;;;;;;;;5039164;28;20035;-77
2023/09/01 06:21:25;;;;;;;15.40;13.57;;;;;;;;;;5040247;28;20344;-76
2023/09/01 06:23:50;;;;;;;17.38;15.57;;;;;;;;;;5041480;28;20431;-76
2023/09/01 06:26:19;;;;;;;16.33;14.82;;;;;;;;;;5042197;28;20017;-76
2023/09/01 06:28:45;;;;;;;16.02;14.48;;;;;;;;;;5040384;28;20044;-76
2023/09/01 06:31:10;;;;;;;16.00;14.38;;;;;;;;;;5027810;28;20352;-76
2023/09/01 06:33:36;;;;;;;16.33;14.70;;;;;;;;;;5034037;28;20033;-76
2023/09/01 06:36:02;;;;;;;16.95;15.23;;;;;;;;;;5030487;28;20789;-77
2023/09/01 06:38:27;;;;;;;17.75;16.05;;;;;;;;;;5036322;28;20025;-77
2023/09/01 06:40:52;;;;;;;17.52;15.85;;;;;;;;;;5037960;28;20029;-76
2023/09/01 06:43:18;;;;;;;18.25;16.45;;;;;;;;;;5040628;28;20028;-77
2023/09/01 06:45:43;;;;;;;18.23;16.55;;;;;;;;;;5040043;28;20452;-74
2023/09/01 06:48:08;;;;;;;17.27;15.68;;;;;;;;;;5041257;28;20045;-77
2023/09/01 06:50:36;;;;;;;17.20;15.60;;;;;;;;;;5040025;28;20036;-78
2023/09/01 06:53:02;;;;;;;18.67;16.88;;;;;;;;;;5039020;28;20103;-75
2023/09/01 06:55:27;;;;;;;17.98;16.10;;;;;;;;;;5038115;28;20135;-76
2023/09/01 06:57:52;;;;;;;19.30;17.20;;;;;;;;;;5039331;28;20626;-74
2023/09/01 07:00:18;;;;;;;19.88;17.80;;;;;;;;;;5031006;28;20029;-76
2023/09/01 07:02:43;;;;;;;19.23;17.35;;;;;;;;;;5025852;28;20082;-77
2023/09/01 07:05:09;;;;;;;18.23;16.52;;;;;;;;;;5037392;28;20060;-79
2023/09/01 07:07:34;;;;;;;18.13;16.23;;;;;;;;;;5037980;28;20035;-78
2023/09/01 07:09:59;;;;;;;17.75;16.13;;;;;;;;;;5026815;28;20057;-79
2023/09/01 07:12:25;;;;;;;18.88;16.88;;;;;;;;;;5026908;28;20094;-77
2023/09/01 07:14:50;;;;;;;17.88;16.17;;;;;;;;;;5025202;28;20025;-76
2023/09/01 07:17:19;;;;;;;164.52;142.90;;;;;;;;;;5025056;28;20099;-78
2023/09/01 07:19:44;;;;;;;164.57;148.15;;;;;;;;;;5023460;28;20094;-77
2023/09/01 07:22:10;;;;;;;30.33;27.33;;;;;;;;;;5022127;28;20414;-78
2023/09/01 07:24:35;;;;;;;19.23;17.35;;;;;;;;;;5021665;28;20033;-77
2023/09/01 07:27:02;;;;;;;18.65;16.95;;;;;;;;;;5022201;28;20052;-76
2023/09/01 07:29:27;;;;;;;18.60;16.98;;;;;;;;;;5023950;28;20534;-77
2023/09/01 07:31:53;;;;;;;19.35;17.35;;;;;;;;;;5022465;28;20039;-77
2023/09/01 07:34:18;;;;;;;19.55;17.27;;;;;;;;;;5022822;28;20035;-76
2023/09/01 07:36:44;;;;;;;21.52;19.48;;;;;;;;;;5024306;28;20021;-78
2023/09/01 07:39:09;;;;;;;21.77;18.42;;;;;;;;;;5023680;28;20056;-77
2023/09/01 07:41:34;;;;;;;21.98;19.75;;;;;;;;;;5027099;28;20439;-77
2023/09/01 07:44:00;;;;;;;22.50;20.05;;;;;;;;;;5026385;28;20309;-77
2023/09/01 07:46:27;;;;;;;22.90;21.00;;;;;;;;;;5025329;28;20059;-78
2023/09/01 07:48:52;;;;;;;24.73;22.55;;;;;;;;;;5025293;28;20041;-77
2023/09/01 07:51:18;;;;;;;23.65;21.52;;;;;;;;;;5026898;28;20035;-78
2023/09/01 07:53:43;;;;;;;23.00;20.98;;;;;;;;;;5028049;28;20356;-80
2023/09/01 07:56:10;;;;;;;21.67;19.83;;;;;;;;;;5026061;28;20047;-79
2023/09/01 07:58:35;;;;;;;22.40;20.00;;;;;;;;;;5025772;28;20044;-78
2023/09/01 08:01:01;;;;;;;24.10;19.65;;;;;;;;;;5025028;28;20032;-78
2023/09/01 08:03:26;;;;;;;21.75;19.55;;;;;;;;;;5023874;28;20079;-78
2023/09/01 08:05:51;;;;;;;22.10;20.00;;;;;;;;;;5026686;28;20025;-78
2023/09/01 08:08:17;;;;;;;21.10;19.30;;;;;;;;;;5006884;28;20372;-79
2023/09/01 08:10:42;;;;;;;21.13;19.13;;;;;;;;;;5025486;28;20116;-77
2023/09/01 08:13:08;;;;;;;21.65;19.58;;;;;;;;;;5026970;28;20410;-79
2023/09/01 08:15:33;;;;;;;21.25;19.10;;;;;;;;;;5025339;28;20086;-78
2023/09/01 08:17:59;;;;;;;21.38;19.27;;;;;;;;;;5025868;28;20025;-78
2023/09/01 08:20:25;;;;;;;23.02;20.35;;;;;;;;;;5025170;28;20064;-78
2023/09/01 08:22:50;;;;;;;20.30;18.10;;;;;;;;;;5026391;28;20032;-77
2023/09/01 08:25:16;;;;;;;19.15;17.35;;;;;;;;;;5024729;28;20591;-79
2023/09/01 08:27:41;;;;;;;17.10;15.70;;;;;;;;;;5026523;28;20143;-77
2023/09/01 08:30:07;;;;;;;16.85;15.23;;;;;;;;;;5026819;28;20078;-79
2023/09/01 08:32:33;;;;;;;16.33;14.82;;;;;;;;;;5033487;28;20046;-80
2023/09/01 08:34:59;;;;;;;21.13;15.60;;;;;;;;;;5039980;28;20413;-81
2023/09/01 08:37:25;;;;;;;15.82;14.52;;;;;;;;;;5039496;28;20039;-80
2023/09/01 08:39:50;;;;;;;15.18;13.88;;;;;;;;;;5036968;28;20025;-79
2023/09/01 08:42:17;;;;;;;14.05;12.95;;;;;;;;;;5032394;28;20131;-76
2023/09/01 08:44:43;;;;;;;14.80;13.60;;;;;;;;;;5025848;28;20060;-80
2023/09/01 08:47:08;;;;;;;14.15;13.02;;;;;;;;;;5025706;28;20075;-78
2023/09/01 08:49:34;;;;;;;14.68;12.55;;;;;;;;;;5031731;28;20026;-77
2023/09/01 08:52:02;;;;;;;15.10;13.60;;;;;;;;;;5038846;28;20029;-79
2023/09/01 08:54:28;;;;;;;14.73;13.43;;;;;;;;;;5036221;28;20055;-77
2023/09/01 08:56:54;;;;;;;15.82;14.32;;;;;;;;;;5025560;28;20535;-78
2023/09/01 08:59:19;;;;;;;15.85;14.25;;;;;;;;;;5024215;28;20108;-78
2023/09/01 09:01:46;;;;;;;14.88;13.68;;;;;;;;;;5033751;28;21295;-79
2023/09/01 09:04:11;;;;;;;15.82;14.02;;;;;;;;;;5036377;28;20107;-81
2023/09/01 09:06:37;;;;;;;15.68;14.40;;;;;;;;;;5026974;28;20128;-79
2023/09/01 09:09:15;;;;;;;15.73;14.43;;;;;;;;;;5036000;28;20043;-78
2023/09/01 09:11:53;;;;;;;16.15;14.45;;;;;;;;;;5028775;28;20107;-78
2023/09/01 09:14:19;;;;;;;16.20;14.80;;;;;;;;;;5033746;28;20012;-78
2023/09/01 09:16:52;;;;;;;14.18;12.80;;;;;;;;;;5035808;28;20032;-79
2023/09/01 09:19:19;;;;;;;14.85;13.30;;;;;;;;;;5038393;28;20106;-78
2023/09/01 09:21:44;;;;;;;15.98;13.65;;;;;;;;;;5037984;28;20032;-78
2023/09/01 09:24:09;;;;;;;14.27;12.82;;;;;;;;;;5037224;28;20022;-79
2023/09/01 09:26:35;;;;;;;16.48;13.90;;;;;;;;;;5038917;28;20054;-78
2023/09/01 09:29:08;;;;;;;14.73;13.40;;;;;;;;;;5036983;28;20033;-79
2023/09/01 09:31:39;;;;;;;13.48;12.43;;;;;;;;;;5036508;28;20085;-79
2023/09/01 09:34:31;;;;;;;13.27;12.23;;;;;;;;;;5036658;28;20117;-79
2023/09/01 09:36:56;;;;;;;14.73;13.20;;;;;;;;;;5032523;28;20428;-78
2023/09/01 09:39:24;;;;;;;14.15;12.85;;;;;;;;;;5037524;28;20028;-77
2023/09/01 09:41:50;;;;;;;14.93;13.73;;;;;;;;;;5034496;28;20519;-77
2023/09/01 09:44:23;;;;;;;13.23;12.15;;;;;;;;;;5037256;28;20096;-76
2023/09/01 09:46:49;;;;;;;12.65;11.65;;;;;;;;;;5035950;28;20132;-79
2023/09/01 09:49:14;;;;;;;13.40;12.30;;;;;;;;;;5035078;28;20568;-77
2023/09/01 09:51:41;;;;;;;15.95;14.60;;;;;;;;;;5040277;28;20047;-79
2023/09/01 09:54:08;;;;;;;15.57;14.27;;;;;;;;;;5038269;28;20021;-78
2023/09/01 09:56:34;;;;;;;14.32;13.02;;;;;;;;;;5036632;28;20070;-78
2023/09/01 09:59:03;;;;;;;13.50;12.40;;;;;;;;;;5036380;28;20387;-78
2023/09/01 10:01:35;;;;;;;13.48;12.15;;;;;;;;;;5023134;28;20029;-78
2023/09/01 10:04:07;;;;;;;13.77;12.57;;;;;;;;;;5005148;28;20368;-79
2023/09/01 10:06:34;;;;;;;13.40;12.30;;;;;;;;;;5022876;28;20034;-79
2023/09/01 10:09:01;;;;;;;13.98;12.63;;;;;;;;;;5020801;28;20021;-79
2023/09/01 10:11:28;;;;;;;13.13;12.05;;;;;;;;;;5021958;28;20040;-76
2023/09/01 10:13:53;;;;;;;13.90;12.77;;;;;;;;;;5022929;28;20071;-77
2023/09/01 10:16:19;;;;;;;14.57;13.27;;;;;;;;;;5024462;28;20456;-78
2023/09/01 10:18:47;;;;;;;15.77;14.45;;;;;;;;;;5021368;28;20132;-79
2023/09/01 10:21:13;;;;;;;12.63;11.63;;;;;;;;;;5024546;28;20105;-78
2023/09/01 10:23:39;;;;;;;12.43;11.43;;;;;;;;;;5025464;28;20048;-78
2023/09/01 10:26:14;;;;;;;12.40;11.30;;;;;;;;;;5022078;28;20447;-77
2023/09/01 10:29:00;;;;;;;13.13;12.13;;;;;;;;;;5023798;28;20551;-77
2023/09/01 10:31:26;;;;;;;12.30;11.38;;;;;;;;;;5022923;28;20025;-79
2023/09/01 10:34:10;;;;;;;12.23;11.05;;;;;;;;;;5024768;28;20489;-78
2023/09/01 10:36:38;;;;;;;12.13;11.13;;;;;;;;;;5027437;28;20485;-77
2023/09/01 10:39:24;;;;;;;11.70;10.80;;;;;;;;;;5027920;28;20021;-77
2023/09/01 10:41:53;;;;;;;12.30;10.98;;;;;;;;;;5022482;28;20061;-78
2023/09/01 10:44:21;;;;;;;12.43;11.32;;;;;;;;;;5025323;28;20029;-78
2023/09/01 10:46:46;;;;;;;10.30;9.43;;;;;;;;;;5024354;28;20059;-76
2023/09/01 10:49:12;;;;;;;13.23;11.45;;;;;;;;;;5025049;28;20036;-79
2023/09/01 10:51:37;;;;;;;12.40;11.30;;;;;;;;;;5023185;28;20029;-79
2023/09/01 10:54:15;;;;;;;11.45;10.55;;;;;;;;;;5025529;28;20061;-78
2023/09/01 10:56:57;;;;;;;11.02;10.13;;;;;;;;;;5024508;28;20036;-78
2023/09/01 10:59:29;;;;;;;10.80;10.00;;;;;;;;;;5022445;28;20422;-78
2023/09/01 11:01:54;;;;;;;10.43;9.63;;;;;;;;;;5027811;28;20033;-78
2023/09/01 11:04:20;;;;;;;10.25;9.50;;;;;;;;;;5027249;28;20040;-77
2023/09/01 11:06:58;;;;;;;9.88;9.13;;;;;;;;;;5025502;28;20580;-80
2023/09/01 11:09:23;;;;;;;9.68;8.63;;;;;;;;;;5022731;28;20962;-81
2023/09/01 11:11:49;;;;;;;9.18;8.35;;;;;;;;;;5023893;28;20025;-78
2023/09/01 11:14:15;;;;;;;9.23;8.52;;;;;;;;;;5022532;28;20021;-77
2023/09/01 11:16:44;;;;;;;9.13;8.43;;;;;;;;;;5032159;28;20151;-77
2023/09/01 11:19:09;;;;;;;11.10;10.30;;;;;;;;;;5030040;28;20024;-77
2023/09/01 11:21:36;;;;;;;12.48;11.38;;;;;;;;;;5037003;28;20070;-78
2023/09/01 11:24:03;;;;;;;11.43;10.52;;;;;;;;;;5037682;28;20555;-77
2023/09/01 11:26:28;;;;;;;11.02;10.07;;;;;;;;;;5037867;28;20128;-78
2023/09/01 11:28:55;;;;;;;11.50;10.45;;;;;;;;;;5037265;28;20113;-78
2023/09/01 11:31:20;;;;;;;12.25;11.25;;;;;;;;;;5040449;28;20037;-77
2023/09/01 11:33:52;;;;;;;14.93;12.57;;;;;;;;;;5039180;28;20032;-78
2023/09/01 11:36:18;;;;;;;11.45;10.55;;;;;;;;;;5020276;28;20017;-78
2023/09/01 11:38:44;;;;;;;13.20;11.27;;;;;;;;;;5035705;28;20021;-79
2023/09/01 11:41:19;;;;;;;12.40;11.15;;;;;;;;;;5038561;28;20083;-78
2023/09/01 11:43:45;;;;;;;12.10;11.10;;;;;;;;;;5039686;28;20040;-76
2023/09/01 11:46:11;;;;;;;11.82;10.68;;;;;;;;;;5038619;28;20325;-78
2023/09/01 11:48:36;;;;;;;10.57;9.63;;;;;;;;;;5038282;28;20056;-79
2023/09/01 11:51:02;;;;;;;10.40;9.50;;;;;;;;;;5037613;28;20104;-77
2023/09/01 11:53:28;;;;;;;11.10;10.20;;;;;;;;;;5038381;28;20033;-76
2023/09/01 11:56:01;;;;;;;11.77;10.93;;;;;;;;;;5037248;28;20103;-78
2023/09/01 11:58:32;;;;;;;12.75;11.65;;;;;;;;;;5040642;28;20052;-78
2023/09/01 12:01:10;;;;;;;11.60;10.63;;;;;;;;;;5039747;28;20035;-78
2023/09/01 12:03:37;;;;;;;11.50;10.50;;;;;;;;;;5038559;28;20034;-77
2023/09/01 12:06:13;;;;;;;11.40;10.60;;;;;;;;;;5039066;28;20044;-78
2023/09/01 12:08:38;;;;;;;12.05;10.70;;;;;;;;;;5032316;28;20017;-78
2023/09/01 12:11:06;;;;;;;11.88;10.55;;;;;;;;;;5030959;28;20459;-78
2023/09/01 12:13:31;;;;;;;11.50;10.47;;;;;;;;;;5040110;28;20078;-77
2023/09/01 12:16:01;;;;;;;9.75;9.05;;;;;;;;;;5032793;28;20017;-78
2023/09/01 12:18:38;;;;;;;11.73;10.73;;;;;;;;;;5034942;28;20029;-79
2023/09/01 12:21:04;;;;;;;11.10;10.23;;;;;;;;;;5038040;28;20120;-78
2023/09/01 12:23:30;;;;;;;12.82;11.73;;;;;;;;;;5037460;28;20033;-78
2023/09/01 12:25:56;;;;;;;14.90;11.70;;;;;;;;;;5036850;28;20068;-78
2023/09/01 12:28:22;;;;;;;12.57;11.45;;;;;;;;;;5037754;28;20495;-78
2023/09/01 12:30:47;;;;;;;13.38;12.38;;;;;;;;;;5038045;28;20029;-77
2023/09/01 12:33:13;;;;;;;13.45;12.45;;;;;;;;;;5039331;28;20447;-77
2023/09/01 12:35:41;;;;;;;12.82;11.73;;;;;;;;;;5037707;28;20025;-78
2023/09/01 12:38:07;;;;;;;13.10;12.00;;;;;;;;;;5038272;28;20036;-78
2023/09/01 12:40:33;;;;;;;13.80;12.60;;;;;;;;;;5038502;28;20451;-78
2023/09/01 12:42:58;;;;;;;13.50;12.40;;;;;;;;;;5038177;28;20033;-78
2023/09/01 12:45:24;;;;;;;13.60;12.50;;;;;;;;;;5038415;28;20476;-78
2023/09/01 12:47:49;;;;;;;12.00;11.00;;;;;;;;;;5034072;28;20130;-78
2023/09/01 12:50:14;;;;;;;11.88;11.07;;;;;;;;;;5036165;28;20041;-77
2023/09/01 12:52:40;;;;;;;10.18;9.35;;;;;;;;;;5037587;28;20493;-77
2023/09/01 12:55:05;;;;;;;10.23;9.52;;;;;;;;;;5012070;28;20040;-78
2023/09/01 12:57:30;;;;;;;10.77;9.98;;;;;;;;;;5036732;28;20028;-78
2023/09/01 12:59:56;;;;;;;9.85;9.05;;;;;;;;;;5038528;28;20033;-78
2023/09/01 13:02:23;;;;;;;9.50;8.77;;;;;;;;;;5036265;28;20108;-78
2023/09/01 13:04:48;;;;;;;10.75;9.73;;;;;;;;;;5037522;28;20025;-78
2023/09/01 13:07:15;;;;;;;10.10;9.20;;;;;;;;;;5036616;28;20017;-78
2023/09/01 13:09:41;;;;;;;9.15;8.45;;;;;;;;;;5036664;28;20017;-77
2023/09/01 13:12:07;;;;;;;9.85;9.13;;;;;;;;;;5036749;28;20171;-78
2023/09/01 13:14:33;;;;;;;8.10;7.57;;;;;;;;;;5037667;28;20115;-78
2023/09/01 13:16:58;;;;;;;8.20;7.40;;;;;;;;;;5037414;28;20036;-79
2023/09/01 13:19:23;;;;;;;8.15;7.45;;;;;;;;;;5034588;28;20040;-76
2023/09/01 13:21:49;;;;;;;8.45;7.85;;;;;;;;;;5038563;28;20034;-78
2023/09/01 13:24:14;;;;;;;8.30;7.80;;;;;;;;;;5038379;28;20049;-78
2023/09/01 13:26:39;;;;;;;8.20;7.60;;;;;;;;;;5031058;28;20033;-78
2023/09/01 13:29:05;;;;;;;8.20;7.50;;;;;;;;;;5035242;28;20026;-77
2023/09/01 13:31:30;;;;;;;8.05;7.28;;;;;;;;;;5039532;28;20035;-79
2023/09/01 13:33:55;;;;;;;7.75;7.07;;;;;;;;;;5038831;28;20033;-81
2023/09/01 13:36:21;;;;;;;7.35;6.85;;;;;;;;;;5038514;28;20340;-79
2023/09/01 13:38:49;;;;;;;8.15;7.47;;;;;;;;;;5037453;28;20035;-80
2023/09/01 13:41:14;;;;;;;7.90;7.30;;;;;;;;;;5039418;28;20036;-80
2023/09/01 13:43:39;;;;;;;7.18;6.57;;;;;;;;;;5040011;28;20029;-82
2023/09/01 13:46:18;;;;;;;6.70;6.20;;;;;;;;;;5036516;28;20100;-82
2023/09/01 13:48:43;;;;;;;7.43;6.93;;;;;;;;;;5039964;28;20063;-82
2023/09/01 13:51:09;;;;;;;7.28;6.78;;;;;;;;;;5037912;28;20032;-80
2023/09/01 13:53:34;;;;;;;7.18;6.63;;;;;;;;;;5037738;28;20657;-78
2023/09/01 13:55:59;;;;;;;7.07;6.57;;;;;;;;;;5037850;28;20030;-80
2023/09/01 13:58:25;;;;;;;7.35;6.85;;;;;;;;;;5026400;28;20041;-84
2023/09/01 14:00:52;;;;;;;7.63;7.03;;;;;;;;;;5037238;28;20106;-84
2023/09/01 14:03:18;;;;;;;6.60;6.10;;;;;;;;;;5038704;28;20044;-85
2023/09/01 14:05:43;;;;;;;7.47;6.88;;;;;;;;;;5038670;28;20037;-82
2023/09/01 14:08:08;;;;;;;8.05;7.13;;;;;;;;;;5037527;28;20094;-85
2023/09/01 14:10:34;;;;;;;6.88;6.38;;;;;;;;;;5041353;28;20032;-83
2023/09/01 14:12:59;;;;;;;7.40;6.90;;;;;;;;;;5041650;28;20372;-81
2023/09/01 14:15:25;;;;;;;7.25;6.75;;;;;;;;;;5040523;28;20033;-83
2023/09/01 14:17:50;;;;;;;7.40;6.90;;;;;;;;;;5041121;28;20112;-84
2023/09/01 14:20:15;;;;;;;6.90;6.35;;;;;;;;;;5041689;28;20359;-83
2023/09/01 14:22:41;;;;;;;7.25;6.75;;;;;;;;;;5041596;28;20112;-84
2023/09/01 14:25:06;;;;;;;7.07;6.57;;;;;;;;;;5036473;28;20018;-79